createdAt,value
2019-04-29T00:02:09.479Z,97.70
2019-04-29T00:04:39.626Z,97.40
2019-04-29T00:07:09.828Z,97.20
2019-04-29T00:09:40.073Z,95.40
2019-04-29T00:12:10.297Z,96.40
2019-04-29T00:14:42.248Z,96.30
2019-04-29T00:17:16.768Z,96.50
2019-04-29T00:20:04.412Z,96.50
2019-04-29T00:22:34.752Z,96.50
2019-04-29T00:25:05.616Z,96.70
2019-04-29T00:27:35.748Z,96.90
2019-04-29T00:30:11.076Z,96.80
2019-04-29T00:32:41.208Z,97.00
2019-04-29T00:35:12.353Z,97.00
2019-04-29T00:38:02.164Z,97.40
2019-04-29T00:40:48.471Z,97.60
2019-04-29T00:43:31.862Z,97.80
2019-04-29T00:46:02.145Z,98.50
2019-04-29T00:48:32.216Z,98.50
2019-04-29T00:51:02.428Z,98.30
2019-04-29T00:53:32.751Z,98.10
2019-04-29T00:56:03.577Z,98.20
2019-04-29T00:58:33.652Z,98.60
2019-04-29T01:01:07.243Z,98.80
2019-04-29T01:03:37.469Z,99.30
2019-04-29T01:06:07.690Z,99.70
2019-04-29T01:08:37.828Z,99.90
2019-04-29T01:11:08.035Z,99.50
2019-04-29T01:13:38.245Z,99.80
2019-04-29T01:16:08.388Z,99.60
2019-04-29T01:18:38.557Z,99.90
2019-04-29T01:21:08.681Z,99.90
2019-04-29T01:23:38.865Z,99.90
2019-04-29T01:26:10.740Z,99.20
2019-04-29T01:28:45.928Z,98.60
2019-04-29T01:31:17.701Z,98.00
2019-04-29T01:33:49.511Z,98.00
2019-04-29T01:36:24.024Z,97.80
2019-04-29T01:38:55.879Z,97.70
2019-04-29T01:41:30.234Z,97.70
2019-04-29T01:44:04.552Z,98.00
2019-04-29T01:46:34.846Z,97.20
2019-04-29T01:49:05.145Z,97.50
2019-04-29T01:51:35.453Z,97.70
2019-04-29T01:54:05.688Z,97.90
2019-04-29T01:56:35.836Z,98.10
2019-04-29T01:59:06.076Z,97.90
2019-04-29T02:01:36.217Z,97.90
2019-04-29T02:04:06.504Z,97.90
2019-04-29T02:06:36.576Z,98.00
2019-04-29T02:09:10.221Z,97.90
2019-04-29T02:11:40.855Z,98.30
2019-04-29T02:14:11.076Z,99.00
2019-04-29T02:16:41.137Z,97.40
2019-04-29T02:19:11.292Z,98.30
2019-04-29T02:21:42.996Z,98.30
2019-04-29T02:24:17.944Z,97.40
2019-04-29T02:26:47.935Z,97.80
2019-04-29T02:29:18.114Z,98.20
2019-04-29T02:31:48.364Z,97.50
2019-04-29T02:34:19.066Z,97.40
2019-04-29T02:36:49.198Z,97.00
2019-04-29T02:39:23.697Z,97.50
2019-04-29T02:41:58.485Z,97.90
2019-04-29T02:44:28.674Z,96.90
2019-04-29T02:46:58.817Z,97.20
2019-04-29T02:49:28.976Z,97.00
2019-04-29T02:51:59.114Z,97.00
2019-04-29T02:54:30.128Z,96.70
2019-04-29T02:57:01.891Z,97.30
2019-04-29T02:59:34.752Z,96.60
2019-04-29T03:02:06.741Z,96.80
2019-04-29T03:04:54.557Z,97.20
2019-04-29T03:07:23.896Z,96.50
2019-04-29T03:09:54.017Z,95.90
2019-04-29T03:12:24.636Z,95.90
2019-04-29T03:14:54.729Z,96.30
2019-04-29T03:17:24.937Z,96.30
2019-04-29T03:20:08.412Z,96.20
2019-04-29T03:22:45.656Z,96.40
2019-04-29T03:25:14.940Z,96.00
2019-04-29T03:27:44.918Z,96.20
2019-04-29T03:30:15.169Z,96.60
2019-04-29T03:32:45.321Z,96.50
2019-04-29T03:35:15.514Z,96.70
2019-04-29T03:37:45.661Z,96.50
2019-04-29T03:40:15.818Z,96.00
2019-04-29T03:42:45.976Z,96.40
2019-04-29T03:45:16.130Z,97.10
2019-04-29T03:47:46.257Z,96.70
2019-04-29T03:50:16.421Z,96.60
2019-04-29T03:52:46.704Z,96.00
2019-04-29T03:55:16.922Z,95.80
2019-04-29T03:57:47.065Z,96.10
2019-04-29T04:00:18.346Z,95.70
2019-04-29T04:03:01.849Z,95.90
2019-04-29T04:05:33.555Z,95.90
2019-04-29T04:08:17.388Z,95.30
2019-04-29T04:10:47.514Z,94.40
2019-04-29T04:13:17.669Z,95.30
2019-04-29T04:15:47.876Z,94.90
2019-04-29T04:18:25.387Z,95.20
2019-04-29T04:20:55.487Z,94.80
2019-04-29T04:23:25.730Z,95.20
2019-04-29T04:25:55.936Z,95.00
2019-04-29T04:28:26.037Z,95.20
2019-04-29T04:30:56.230Z,95.10
2019-04-29T04:33:26.381Z,95.10
2019-04-29T04:35:56.516Z,96.00
2019-04-29T04:38:26.589Z,95.50
2019-04-29T04:41:07.002Z,95.10
2019-04-29T04:43:37.145Z,95.20
2019-04-29T04:46:07.353Z,95.00
2019-04-29T04:48:37.593Z,94.60
2019-04-29T04:51:07.741Z,94.70
2019-04-29T04:53:37.817Z,94.60
2019-04-29T04:56:07.900Z,95.10
2019-04-29T04:58:37.971Z,95.60
2019-04-29T05:01:08.288Z,96.20
2019-04-29T05:03:38.491Z,96.10
2019-04-29T05:06:08.638Z,95.70
2019-04-29T05:08:38.651Z,95.90
2019-04-29T05:11:08.795Z,96.10
2019-04-29T05:13:38.856Z,96.10
2019-04-29T05:16:09.009Z,94.50
2019-04-29T05:18:39.154Z,94.20
2019-04-29T05:21:09.369Z,95.00
2019-04-29T05:23:41.615Z,95.70
2019-04-29T05:26:11.262Z,94.90
2019-04-29T05:28:41.463Z,95.60
2019-04-29T05:31:11.610Z,95.90
2019-04-29T05:33:41.772Z,95.90
2019-04-29T05:36:13.480Z,96.50
2019-04-29T05:38:45.249Z,96.80
2019-04-29T05:41:15.502Z,96.90
2019-04-29T05:44:05.337Z,96.90
2019-04-29T05:46:42.784Z,97.10
2019-04-29T05:49:14.543Z,96.80
2019-04-29T05:51:51.992Z,97.00
2019-04-29T05:54:26.930Z,96.60
2019-04-29T05:56:57.779Z,97.10
2019-04-29T05:59:27.835Z,97.10
2019-04-29T06:01:57.909Z,97.30
2019-04-29T06:04:28.773Z,97.70
2019-04-29T06:06:59.007Z,98.00
2019-04-29T06:09:29.208Z,97.60
2019-04-29T06:11:59.308Z,97.40
2019-04-29T06:14:29.537Z,97.60
2019-04-29T06:17:03.004Z,96.70
2019-04-29T06:19:35.000Z,97.10
2019-04-29T06:22:03.982Z,97.50
2019-04-29T06:24:36.961Z,97.50
2019-04-29T06:27:05.864Z,97.50
2019-04-29T06:29:36.092Z,97.50
2019-04-29T06:32:06.240Z,96.90
2019-04-29T06:34:40.031Z,96.90
2019-04-29T06:37:08.078Z,96.90
2019-04-29T06:39:38.289Z,96.00
2019-04-29T06:42:08.609Z,96.30
2019-04-29T06:44:38.693Z,96.10
2019-04-29T06:47:08.775Z,95.70
2019-04-29T06:49:38.908Z,95.50
2019-04-29T06:52:09.052Z,95.30
2019-04-29T06:54:39.175Z,95.10
2019-04-29T06:57:09.325Z,94.60
2019-04-29T06:59:42.976Z,96.00
2019-04-29T07:02:14.416Z,94.60
2019-04-29T07:04:43.134Z,95.50
2019-04-29T07:07:13.132Z,94.70
2019-04-29T07:09:43.373Z,94.90
2019-04-29T07:12:13.985Z,94.60
2019-04-29T07:14:44.268Z,94.70
2019-04-29T07:17:14.552Z,94.00
2019-04-29T07:19:44.623Z,94.50
2019-04-29T07:22:14.876Z,94.60
2019-04-29T07:24:45.201Z,94.40
2019-04-29T07:27:16.354Z,94.00
2019-04-29T07:29:46.548Z,94.60
2019-04-29T07:32:16.764Z,94.20
2019-04-29T07:34:46.964Z,93.70
2019-04-29T07:37:17.076Z,93.80
2019-04-29T07:39:47.255Z,93.40
2019-04-29T07:42:17.362Z,93.50
2019-04-29T07:45:05.113Z,92.90
2019-04-29T07:47:34.867Z,93.30
2019-04-29T07:50:06.236Z,93.80
2019-04-29T07:52:36.440Z,94.30
2019-04-29T07:55:07.693Z,94.50
2019-04-29T07:57:37.852Z,94.50
2019-04-29T08:00:13.037Z,93.90
2019-04-29T08:02:41.821Z,93.40
2019-04-29T08:05:12.033Z,93.90
2019-04-29T08:07:42.732Z,94.60
2019-04-29T08:10:23.272Z,94.80
2019-04-29T08:12:45.077Z,95.40
2019-04-29T08:15:15.260Z,95.00
2019-04-29T08:17:45.396Z,94.60
2019-04-29T08:20:17.085Z,94.40
2019-04-29T08:22:47.319Z,94.30
2019-04-29T08:25:17.551Z,93.30
2019-04-29T08:27:47.719Z,92.90
2019-04-29T08:30:18.342Z,93.60
2019-04-29T08:32:48.593Z,92.90
2019-04-29T08:35:18.745Z,92.90
2019-04-29T08:37:49.003Z,92.40
2019-04-29T08:40:19.153Z,91.70
2019-04-29T08:42:51.009Z,91.00
2019-04-29T08:45:28.480Z,91.10
2019-04-29T08:48:00.166Z,91.90
2019-04-29T08:50:30.384Z,91.10
2019-04-29T08:53:00.474Z,91.50
2019-04-29T08:55:31.419Z,92.40
2019-04-29T08:58:02.413Z,91.90
2019-04-29T09:00:32.701Z,92.40
2019-04-29T09:03:02.833Z,93.50
2019-04-29T09:05:32.988Z,93.00
2019-04-29T09:08:03.128Z,92.80
2019-04-29T09:10:36.723Z,91.50
2019-04-29T09:13:05.266Z,90.80
2019-04-29T09:15:35.421Z,89.80
2019-04-29T09:18:05.665Z,88.40
2019-04-29T09:20:35.955Z,88.80
2019-04-29T09:23:10.269Z,87.40
2019-04-29T09:25:42.070Z,85.00
2019-04-29T09:28:18.024Z,88.80
2019-04-29T09:30:45.811Z,90.50
2019-04-29T09:33:16.053Z,91.20
2019-04-29T09:35:46.216Z,90.50
2019-04-29T09:38:16.383Z,90.70
2019-04-29T09:40:48.548Z,91.20
2019-04-29T09:43:36.195Z,90.70
2019-04-29T09:46:08.002Z,90.70
2019-04-29T09:48:38.155Z,91.00
2019-04-29T09:51:17.253Z,90.50
2019-04-29T09:53:40.084Z,90.90
2019-04-29T09:56:10.315Z,90.60
2019-04-29T09:58:40.543Z,90.40
2019-04-29T10:01:20.888Z,90.40
2019-04-29T10:03:55.933Z,90.20
2019-04-29T10:06:27.743Z,89.40
2019-04-29T10:08:58.068Z,89.20
2019-04-29T10:11:28.541Z,88.30
2019-04-29T10:13:58.710Z,89.30
2019-04-29T10:16:42.495Z,88.30
2019-04-29T10:19:26.220Z,89.50
2019-04-29T10:21:56.527Z,90.50
2019-04-29T10:24:26.749Z,89.10
2019-04-29T10:26:56.998Z,86.70
2019-04-29T10:29:28.805Z,87.50
2019-04-29T10:32:02.458Z,86.60
2019-04-29T10:34:31.702Z,86.10
2019-04-29T10:37:02.735Z,85.50
2019-04-29T10:39:46.105Z,85.40
2019-04-29T10:42:18.026Z,82.20
2019-04-29T10:44:58.776Z,82.40
2019-04-29T10:47:45.313Z,83.30
2019-04-29T10:50:20.061Z,83.90
2019-04-29T10:52:50.237Z,85.90
2019-04-29T10:55:20.746Z,83.70
2019-04-29T10:57:51.459Z,82.90
2019-04-29T11:00:44.216Z,81.30
2019-04-29T11:03:14.615Z,80.20
2019-04-29T11:05:59.821Z,82.60
2019-04-29T11:08:22.737Z,81.60
2019-04-29T11:11:01.833Z,81.60
2019-04-29T11:13:25.340Z,81.10
2019-04-29T11:15:55.665Z,79.70
2019-04-29T11:18:25.820Z,74.50
2019-04-29T11:20:56.065Z,76.00
2019-04-29T11:23:28.018Z,75.80
2019-04-29T11:26:15.612Z,75.70
2019-04-29T11:28:46.951Z,75.90
2019-04-29T11:31:19.326Z,76.20
2019-04-29T11:34:11.681Z,72.70
2019-04-29T11:36:43.947Z,74.10
2019-04-29T11:39:15.549Z,74.80
2019-04-29T11:41:49.772Z,74.60
2019-04-29T11:44:21.949Z,74.40
2019-04-29T11:46:50.687Z,74.00
2019-04-29T11:49:22.508Z,78.40
2019-04-29T11:52:08.523Z,77.20
2019-04-29T11:54:24.588Z,77.00
2019-04-29T11:56:54.833Z,77.30
2019-04-29T11:59:42.534Z,79.30
2019-04-29T12:02:14.361Z,78.00
2019-04-29T12:04:55.155Z,77.60
2019-04-29T12:07:31.686Z,77.90
2019-04-29T12:09:57.224Z,81.60
2019-04-29T12:12:27.454Z,79.40
2019-04-29T12:14:59.231Z,80.60
2019-04-29T12:17:36.626Z,79.10
2019-04-29T12:20:13.439Z,79.70
2019-04-29T12:22:48.643Z,80.50
2019-04-29T12:25:15.575Z,78.80
2019-04-29T12:27:45.873Z,80.30
2019-04-29T12:30:17.878Z,78.90
2019-04-29T12:33:05.802Z,78.40
2019-04-29T12:35:51.924Z,77.80
2019-04-29T12:38:39.762Z,78.20
2019-04-29T12:41:20.530Z,79.80
2019-04-29T12:43:59.638Z,80.00
2019-04-29T12:46:40.680Z,81.20
2019-04-29T12:49:13.519Z,82.10
2019-04-29T12:51:42.748Z,81.30
2019-04-29T12:54:12.933Z,81.90
2019-04-29T12:56:47.590Z,78.90
2019-04-29T12:59:14.752Z,77.60
2019-04-29T13:01:54.061Z,78.70
2019-04-29T13:04:22.687Z,77.70
2019-04-29T13:07:00.156Z,78.80
2019-04-29T13:09:34.814Z,79.10
2019-04-29T13:12:17.807Z,78.90
2019-04-29T13:14:39.098Z,79.20
2019-04-29T13:17:14.855Z,79.60
2019-04-29T13:20:00.701Z,80.10
2019-04-29T13:22:21.847Z,80.20
2019-04-29T13:24:53.028Z,80.40
2019-04-29T13:27:25.385Z,78.70
2019-04-29T13:29:55.075Z,79.40
2019-04-29T13:32:29.285Z,79.70
2019-04-29T13:35:00.424Z,78.60
2019-04-29T13:37:30.588Z,80.20
2019-04-29T13:40:00.726Z,80.30
2019-04-29T13:42:30.920Z,78.50
2019-04-29T13:45:07.964Z,78.40
2019-04-29T13:47:35.898Z,76.90
2019-04-29T13:50:18.115Z,77.60
2019-04-29T13:52:40.410Z,78.40
2019-04-29T13:55:17.622Z,79.40
2019-04-29T13:57:45.112Z,80.00
2019-04-29T14:00:19.925Z,76.70
2019-04-29T14:02:59.256Z,78.50
2019-04-29T14:05:32.526Z,77.00
2019-04-29T14:08:00.995Z,75.10
2019-04-29T14:10:31.114Z,76.40
2019-04-29T14:13:10.470Z,77.90
2019-04-29T14:15:33.937Z,76.70
2019-04-29T14:18:06.896Z,78.70
2019-04-29T14:20:37.627Z,76.30
2019-04-29T14:23:07.762Z,75.90
2019-04-29T14:25:38.208Z,73.70
2019-04-29T14:28:08.321Z,73.10
2019-04-29T14:30:39.373Z,73.50
2019-04-29T14:33:10.539Z,72.80
2019-04-29T14:35:48.331Z,73.60
2019-04-29T14:38:16.925Z,70.20
2019-04-29T14:40:47.227Z,71.90
2019-04-29T14:43:34.950Z,67.90
2019-04-29T14:46:16.823Z,69.90
2019-04-29T14:48:51.607Z,68.60
2019-04-29T14:51:21.829Z,67.70
2019-04-29T14:53:56.712Z,68.70
2019-04-29T14:56:23.970Z,70.50
2019-04-29T14:59:06.116Z,70.90
2019-04-29T15:01:33.610Z,68.40
2019-04-29T15:04:18.415Z,69.30
2019-04-29T15:06:46.051Z,70.50
2019-04-29T15:09:18.149Z,68.30
2019-04-29T15:11:59.083Z,68.60
2019-04-29T15:14:42.832Z,67.10
2019-04-29T15:17:14.689Z,69.50
2019-04-29T15:19:58.364Z,68.10
2019-04-29T15:22:30.301Z,70.00
2019-04-29T15:25:00.546Z,71.10
2019-04-29T15:27:30.776Z,69.40
2019-04-29T15:30:00.928Z,68.80
2019-04-29T15:32:31.876Z,72.70
2019-04-29T15:35:02.105Z,69.20
2019-04-29T15:37:33.228Z,73.30
2019-04-29T15:40:05.072Z,69.70
2019-04-29T15:42:38.048Z,70.80
2019-04-29T15:45:07.485Z,69.50
2019-04-29T15:47:41.707Z,67.50
2019-04-29T15:50:18.477Z,67.40
2019-04-29T15:52:41.207Z,66.50
2019-04-29T15:55:11.488Z,65.40
2019-04-29T15:57:49.700Z,66.20
2019-04-29T16:00:22.215Z,67.60
2019-04-29T16:02:45.585Z,68.70
2019-04-29T16:05:36.148Z,66.90
2019-04-29T16:08:10.755Z,64.10
2019-04-29T16:10:51.682Z,55.90
2019-04-29T16:13:27.758Z,50.70
2019-04-29T16:15:54.822Z,47.30
2019-04-29T16:18:24.937Z,47.60
2019-04-29T16:20:55.236Z,45.10
2019-04-29T16:23:25.336Z,47.60
2019-04-29T16:25:55.333Z,46.10
2019-04-29T16:28:31.778Z,49.20
2019-04-29T16:30:57.586Z,48.10
2019-04-29T16:33:27.828Z,48.50
2019-04-29T16:36:04.760Z,44.60
2019-04-29T16:38:29.997Z,45.70
2019-04-29T16:41:19.552Z,45.50
2019-04-29T16:43:52.687Z,46.40
2019-04-29T16:46:35.606Z,47.70
2019-04-29T16:48:56.428Z,49.70
2019-04-29T16:51:26.684Z,51.00
2019-04-29T16:53:56.899Z,52.80
2019-04-29T16:56:26.989Z,52.90
2019-04-29T16:58:57.087Z,53.00
2019-04-29T17:01:27.322Z,53.50
2019-04-29T17:04:04.914Z,54.40
2019-04-29T17:06:29.539Z,54.50
2019-04-29T17:09:04.976Z,55.10
2019-04-29T17:11:36.336Z,56.90
2019-04-29T17:14:10.075Z,56.80
2019-04-29T17:16:38.270Z,57.90
2019-04-29T17:19:08.503Z,56.40
2019-04-29T17:21:38.662Z,55.90
2019-04-29T17:24:08.879Z,55.80
2019-04-29T17:26:40.745Z,54.80
2019-04-29T17:31:57.693Z,56.80
2019-04-29T17:34:55.887Z,59.60
2019-04-29T17:35:17.103Z,55.10
2019-04-29T17:36:57.346Z,60.70
2019-04-29T17:39:27.859Z,60.60
2019-04-29T17:41:58.007Z,59.30
2019-04-29T17:44:44.761Z,64.00
2019-04-29T17:47:33.648Z,70.40
2019-04-29T17:50:09.200Z,72.80
2019-04-29T17:52:39.575Z,76.60
2019-04-29T17:55:37.601Z,78.60
2019-04-29T17:58:03.645Z,80.50
2019-04-29T18:00:56.128Z,82.20
2019-04-29T18:03:41.662Z,83.30
2019-04-29T18:06:24.066Z,84.70
2019-04-29T18:09:02.502Z,85.30
2019-04-29T18:11:48.803Z,85.80
2019-04-29T18:14:06.660Z,86.50
2019-04-29T18:16:39.529Z,88.60
2019-04-29T18:19:17.333Z,89.10
2019-04-29T18:21:59.844Z,90.30
2019-04-29T18:24:40.304Z,90.50
2019-04-29T18:27:17.803Z,91.00
2019-04-29T18:29:48.116Z,91.60
2019-04-29T18:32:18.354Z,92.30
2019-04-29T18:34:48.650Z,92.50
2019-04-29T18:37:19.188Z,92.90
2019-04-29T18:39:49.420Z,93.40
2019-04-29T18:42:19.647Z,93.70
2019-04-29T18:44:57.704Z,93.80
2019-04-29T18:47:23.060Z,94.10
2019-04-29T18:49:53.367Z,94.20
2019-04-29T18:52:27.776Z,94.70
2019-04-29T18:54:55.253Z,94.70
2019-04-29T18:57:30.531Z,94.80
2019-04-29T18:59:57.148Z,95.00
2019-04-29T19:02:27.705Z,95.30
2019-04-29T19:04:59.601Z,95.30
2019-04-29T19:07:31.900Z,95.30
2019-04-29T19:10:01.514Z,95.40
2019-04-29T19:12:31.828Z,95.20
2019-04-29T19:15:05.149Z,95.10
2019-04-29T19:17:36.681Z,95.10
2019-04-29T19:20:08.632Z,95.20
2019-04-29T19:22:39.953Z,95.30
2019-04-29T19:25:11.989Z,94.70
2019-04-29T19:27:45.399Z,95.10
2019-04-29T19:30:20.867Z,95.30
2019-04-29T19:32:47.346Z,95.40
2019-04-29T19:35:17.470Z,95.70
2019-04-29T19:37:47.628Z,95.50
2019-04-29T19:40:19.148Z,95.80
2019-04-29T19:42:49.391Z,95.00
2019-04-29T19:45:19.549Z,95.60
2019-04-29T19:47:53.169Z,95.40
2019-04-29T19:50:21.590Z,95.70
2019-04-29T19:52:51.747Z,95.90
2019-04-29T19:55:21.923Z,95.90
2019-04-29T19:57:52.825Z,96.10
2019-04-29T20:00:28.427Z,96.60
2019-04-29T20:02:56.883Z,96.90
2019-04-29T20:05:40.524Z,96.80
2019-04-29T20:08:19.346Z,97.00
2019-04-29T20:10:48.165Z,97.30
2019-04-29T20:13:15.411Z,97.00
2019-04-29T20:16:10.937Z,96.80
2019-04-29T20:18:58.803Z,97.40
2019-04-29T20:21:36.826Z,97.00
2019-04-29T20:25:21.935Z,97.10
2019-04-29T20:26:38.993Z,97.00
2019-04-29T20:29:09.512Z,96.30
2019-04-29T20:31:48.604Z,95.80
2019-04-29T20:34:11.710Z,95.40
2019-04-29T20:36:43.150Z,95.50
2019-04-29T20:39:18.328Z,95.50
2019-04-29T20:41:48.760Z,95.20
2019-04-29T20:44:17.856Z,94.90
2019-04-29T20:47:12.865Z,94.70
2019-04-29T20:49:20.024Z,94.60
2019-04-29T20:51:52.981Z,94.60
2019-04-29T20:54:27.652Z,94.20
2019-04-29T20:57:05.001Z,93.90
2019-04-29T20:59:29.664Z,94.10
2019-04-29T21:02:12.090Z,93.90
2019-04-29T21:04:45.712Z,94.10
2019-04-29T21:07:08.678Z,94.00
2019-04-29T21:09:38.762Z,94.50
2019-04-29T21:12:10.496Z,94.60
2019-04-29T21:14:46.420Z,94.70
2019-04-29T21:17:28.819Z,95.00
2019-04-29T21:19:48.498Z,95.00
2019-04-29T21:22:22.453Z,95.20
2019-04-29T21:24:53.952Z,95.00
2019-04-29T21:27:23.478Z,94.70
2019-04-29T21:29:54.209Z,94.50
2019-04-29T21:32:30.460Z,94.10
2019-04-29T21:35:18.418Z,93.90
2019-04-29T21:37:48.193Z,93.80
2019-04-29T21:40:24.240Z,93.60
2019-04-29T21:42:55.874Z,93.70
2019-04-29T21:45:25.986Z,94.20
2019-04-29T21:47:56.157Z,94.70
2019-04-29T21:50:29.010Z,94.60
2019-04-29T21:53:01.827Z,94.40
2019-04-29T21:55:30.005Z,93.90
2019-04-29T21:58:00.334Z,93.80
2019-04-29T22:00:30.664Z,93.70
2019-04-29T22:03:02.422Z,93.60
2019-04-29T22:05:32.824Z,93.60
2019-04-29T22:08:03.050Z,93.70
2019-04-29T22:10:35.090Z,93.50
2019-04-29T22:13:05.378Z,93.50
2019-04-29T22:15:39.078Z,93.50
2019-04-29T22:18:13.630Z,93.40
2019-04-29T22:20:42.080Z,93.50
2019-04-29T22:23:13.427Z,93.50
2019-04-29T22:25:45.689Z,93.40
2019-04-29T22:28:19.741Z,93.40
2019-04-29T22:30:49.916Z,93.30
2019-04-29T22:33:20.286Z,93.40
2019-04-29T22:35:50.459Z,93.30
2019-04-29T22:38:20.467Z,93.50
2019-04-29T22:40:51.644Z,93.50
2019-04-29T22:43:29.042Z,93.50
2019-04-29T22:46:00.277Z,93.70
2019-04-29T22:48:30.374Z,94.20
2019-04-29T22:51:00.687Z,94.30
2019-04-29T22:53:30.894Z,94.60
2019-04-29T22:56:01.049Z,94.80
2019-04-29T22:58:31.275Z,94.90
2019-04-29T23:01:02.472Z,94.80
2019-04-29T23:03:37.420Z,94.90
2019-04-29T23:06:08.408Z,95.00
2019-04-29T23:08:38.240Z,95.30
2019-04-29T23:11:08.500Z,95.40
2019-04-29T23:13:38.790Z,95.90
2019-04-29T23:16:08.970Z,96.00
2019-04-29T23:18:42.264Z,96.00
2019-04-29T23:21:28.732Z,96.20
2019-04-29T23:24:17.329Z,96.40
2019-04-29T23:26:47.308Z,96.10
2019-04-29T23:29:17.475Z,96.20
2019-04-29T23:31:47.690Z,96.30
2019-04-29T23:34:17.863Z,96.10
2019-04-29T23:36:48.892Z,96.10
2019-04-29T23:39:19.312Z,95.90
2019-04-29T23:41:49.547Z,96.10
2019-04-29T23:44:19.712Z,96.30
2019-04-29T23:46:49.937Z,96.50
2019-04-29T23:49:20.078Z,96.30
2019-04-29T23:51:50.119Z,96.40
2019-04-29T23:54:20.206Z,96.60
2019-04-29T23:57:03.743Z,96.70
2019-04-29T23:59:35.513Z,96.20
